createdAt,value
2023-03-13T00:00:08.890Z,3.40
2023-03-13T00:04:10.637Z,4.00
2023-03-13T00:08:12.871Z,4.00
2023-03-13T00:12:14.521Z,4.60
2023-03-13T00:16:16.789Z,3.15
2023-03-13T00:20:18.646Z,3.42
2023-03-13T00:24:20.242Z,3.30
2023-03-13T00:28:21.911Z,3.20
2023-03-13T00:32:23.583Z,3.37
2023-03-13T00:36:28.562Z,3.70
2023-03-13T00:40:30.602Z,3.58
2023-03-13T00:44:32.301Z,3.08
2023-03-13T00:48:34.400Z,3.40
2023-03-13T00:52:36.053Z,3.53
2023-03-13T00:56:37.714Z,3.87
2023-03-13T01:00:39.383Z,3.25
2023-03-13T01:04:41.009Z,3.28
2023-03-13T01:08:42.723Z,3.67
2023-03-13T01:12:44.405Z,3.35
2023-03-13T01:16:46.293Z,3.45
2023-03-13T01:20:48.121Z,3.67
2023-03-13T01:24:52.300Z,2.95
2023-03-13T01:28:55.364Z,3.03
2023-03-13T01:32:57.070Z,3.05
2023-03-13T01:36:58.776Z,3.55
2023-03-13T01:41:00.455Z,3.42
2023-03-13T01:45:02.138Z,3.40
2023-03-13T01:49:16.871Z,3.15
2023-03-13T01:53:18.656Z,2.50
2023-03-13T01:57:32.773Z,2.92
2023-03-13T02:01:35.196Z,3.55
2023-03-13T02:05:38.630Z,3.30
2023-03-13T02:09:41.780Z,2.90
2023-03-13T02:13:44.041Z,2.97
2023-03-13T02:17:47.639Z,2.40
2023-03-13T02:21:55.518Z,3.03
2023-03-13T02:25:57.326Z,3.00
2023-03-13T02:30:02.634Z,3.22
2023-03-13T02:34:04.990Z,3.45
2023-03-13T02:38:10.259Z,2.85
2023-03-13T02:42:14.346Z,2.83
2023-03-13T02:46:19.812Z,2.28
2023-03-13T02:50:21.888Z,2.60
2023-03-13T02:54:30.603Z,2.62
2023-03-13T02:58:49.753Z,2.12
2023-03-13T03:02:52.574Z,2.00
2023-03-13T03:06:54.344Z,2.45
2023-03-13T03:10:55.987Z,2.20
2023-03-13T03:14:57.618Z,2.00
2023-03-13T03:18:59.397Z,1.58
2023-03-13T03:23:01.022Z,1.90
2023-03-13T03:27:02.676Z,1.80
2023-03-13T03:31:08.920Z,1.80
2023-03-13T03:35:11.007Z,2.13
2023-03-13T03:39:12.665Z,1.30
2023-03-13T03:43:14.333Z,2.03
2023-03-13T03:47:16.084Z,1.40
2023-03-13T03:51:17.860Z,1.20
2023-03-13T03:55:20.574Z,1.08
2023-03-13T03:59:22.347Z,1.12
2023-03-13T04:03:24.662Z,1.00
2023-03-13T04:07:26.358Z,1.10
2023-03-13T04:11:27.995Z,1.40
2023-03-13T04:15:29.669Z,1.00
2023-03-13T04:19:31.324Z,0.95
2023-03-13T04:23:32.998Z,1.30
2023-03-13T04:27:35.065Z,1.05
2023-03-13T04:31:36.703Z,1.05
2023-03-13T04:35:38.431Z,0.90
2023-03-13T04:39:40.184Z,1.15
2023-03-13T04:43:41.807Z,0.93
2023-03-13T04:47:43.430Z,0.88
2023-03-13T04:51:45.561Z,0.95
2023-03-13T04:55:48.414Z,0.80
2023-03-13T04:59:50.014Z,1.02
2023-03-13T05:03:51.884Z,1.00
2023-03-13T05:07:53.502Z,0.80
2023-03-13T05:11:57.777Z,1.02
2023-03-13T05:15:59.989Z,1.05
2023-03-13T05:20:01.686Z,1.00
2023-03-13T05:24:03.462Z,0.90
2023-03-13T05:28:05.443Z,1.37
2023-03-13T05:32:07.165Z,1.25
2023-03-13T05:36:09.161Z,1.02
2023-03-13T05:40:11.406Z,1.30
2023-03-13T05:44:13.080Z,1.62
2023-03-13T05:48:14.747Z,1.33
2023-03-13T05:52:16.349Z,1.10
2023-03-13T05:56:18.024Z,1.17
2023-03-13T06:00:19.943Z,1.40
2023-03-13T06:04:21.666Z,1.10
2023-03-13T06:08:23.386Z,1.23
2023-03-13T06:12:25.106Z,1.08
2023-03-13T06:16:26.865Z,1.25
2023-03-13T06:20:28.586Z,2.50
2023-03-13T06:24:30.332Z,1.10
2023-03-13T06:28:31.995Z,1.15
2023-03-13T06:32:34.335Z,1.02
2023-03-13T06:36:36.572Z,1.02
2023-03-13T06:40:38.533Z,1.33
2023-03-13T06:44:41.686Z,1.65
2023-03-13T06:48:44.350Z,1.00
2023-03-13T06:52:47.824Z,1.23
2023-03-13T06:56:49.426Z,0.90
2023-03-13T07:00:51.139Z,1.20
2023-03-13T07:04:52.797Z,1.40
2023-03-13T07:08:54.458Z,1.02
2023-03-13T07:12:56.197Z,1.20
2023-03-13T07:16:59.381Z,1.08
2023-03-13T07:21:05.065Z,1.40
2023-03-13T07:25:07.450Z,1.60
2023-03-13T07:29:09.085Z,1.40
2023-03-13T07:33:10.696Z,1.35
2023-03-13T07:37:13.260Z,1.20
2023-03-13T07:41:15.271Z,1.58
2023-03-13T07:45:17.256Z,1.42
2023-03-13T07:49:18.891Z,1.58
2023-03-13T07:53:23.321Z,1.55
2023-03-13T07:57:25.012Z,1.30
2023-03-13T08:01:30.460Z,2.10
2023-03-13T08:05:32.587Z,1.73
2023-03-13T08:09:34.246Z,1.62
2023-03-13T08:13:36.406Z,1.65
2023-03-13T08:17:38.028Z,1.60
2023-03-13T08:21:39.781Z,1.90
2023-03-13T08:25:41.494Z,1.80
2023-03-13T08:29:43.281Z,1.75
2023-03-13T08:33:46.147Z,1.67
2023-03-13T08:37:47.766Z,1.77
2023-03-13T08:41:49.592Z,2.17
2023-03-13T08:45:56.444Z,2.00
2023-03-13T08:49:58.188Z,2.20
2023-03-13T08:54:01.614Z,1.35
2023-03-13T08:58:03.246Z,2.37
2023-03-13T09:02:05.411Z,2.15
2023-03-13T09:06:08.542Z,1.90
2023-03-13T09:10:10.684Z,1.85
2023-03-13T09:14:12.511Z,2.10
2023-03-13T09:18:14.887Z,1.77
2023-03-13T09:22:16.529Z,1.83
2023-03-13T09:26:22.669Z,1.87
2023-03-13T09:30:24.733Z,1.80
2023-03-13T09:34:27.618Z,1.95
2023-03-13T09:38:29.766Z,1.90
2023-03-13T09:43:11.845Z,1.80
2023-03-13T09:47:31.855Z,2.28
2023-03-13T09:51:36.678Z,1.98
2023-03-13T09:55:39.369Z,2.50
2023-03-13T09:59:43.535Z,2.22
2023-03-13T10:04:25.732Z,1.70
2023-03-13T10:08:36.541Z,2.08
2023-03-13T10:12:44.656Z,1.75
2023-03-13T10:16:50.074Z,1.70
2023-03-13T10:21:00.302Z,1.40
2023-03-13T10:25:07.631Z,1.37
2023-03-13T10:29:24.660Z,1.80
2023-03-13T10:33:28.968Z,1.50
2023-03-13T10:37:42.585Z,1.55
2023-03-13T10:41:45.180Z,1.60
2023-03-13T10:45:47.500Z,1.87
2023-03-13T10:49:55.062Z,1.10
2023-03-13T10:53:56.748Z,1.25
2023-03-13T10:58:04.031Z,1.20
2023-03-13T11:02:20.997Z,0.98
2023-03-13T11:06:31.570Z,0.90
2023-03-13T11:10:36.877Z,1.27
2023-03-13T11:14:38.740Z,1.10
2023-03-13T11:19:03.934Z,0.93
2023-03-13T11:23:25.559Z,0.80
2023-03-13T11:27:35.976Z,0.80
2023-03-13T11:32:22.973Z,0.82
2023-03-13T11:36:41.177Z,0.68
2023-03-13T11:40:48.847Z,0.93
2023-03-13T11:45:16.273Z,0.70
2023-03-13T11:49:31.061Z,0.80
2023-03-13T11:53:47.695Z,0.80
2023-03-13T11:58:31.974Z,0.60
2023-03-13T12:02:39.724Z,0.80
2023-03-13T12:06:50.601Z,0.60
2023-03-13T12:11:07.002Z,0.70
2023-03-13T12:15:19.357Z,0.70
2023-03-13T12:19:32.624Z,0.55
2023-03-13T12:23:46.008Z,0.68
2023-03-13T12:27:55.005Z,0.80
2023-03-13T12:32:08.619Z,0.68
2023-03-13T12:36:40.792Z,0.80
2023-03-13T12:40:51.421Z,0.75
2023-03-13T12:44:54.032Z,0.75
2023-03-13T12:49:18.134Z,0.75
2023-03-13T12:53:22.805Z,1.02
2023-03-13T12:57:43.448Z,0.70
2023-03-13T13:01:53.407Z,0.80
2023-03-13T13:06:13.540Z,0.65
2023-03-13T13:10:24.997Z,0.52
2023-03-13T13:14:26.595Z,0.90
2023-03-13T13:18:32.716Z,0.80
2023-03-13T13:22:37.468Z,1.10
2023-03-13T13:26:47.505Z,0.98
2023-03-13T13:30:55.937Z,0.90
2023-03-13T13:35:12.913Z,0.73
2023-03-13T13:39:39.537Z,1.10
2023-03-13T13:43:48.564Z,0.73
2023-03-13T13:47:51.526Z,0.80
2023-03-13T13:52:02.084Z,0.80
2023-03-13T13:56:10.097Z,0.68
2023-03-13T14:00:27.625Z,0.90
2023-03-13T14:09:22.546Z,0.60
2023-03-13T14:13:24.824Z,0.90
2023-03-13T14:17:26.509Z,0.70
2023-03-13T14:21:28.236Z,1.05
2023-03-13T14:25:42.500Z,0.82
2023-03-13T14:30:00.877Z,1.00
2023-03-13T14:34:12.608Z,0.60
2023-03-13T14:38:22.627Z,0.90
2023-03-13T14:42:24.556Z,0.70
2023-03-13T14:46:33.931Z,0.82
2023-03-13T14:50:36.010Z,1.00
2023-03-13T14:54:55.938Z,0.75
2023-03-13T14:59:15.746Z,0.80
2023-03-13T15:03:18.609Z,1.23
2023-03-13T15:07:20.739Z,0.70
2023-03-13T15:11:32.006Z,0.70
2023-03-13T15:15:33.623Z,0.62
2023-03-13T15:19:35.245Z,0.95
2023-03-13T15:23:36.904Z,1.00
2023-03-13T15:27:38.569Z,1.20
2023-03-13T15:31:40.417Z,0.73
2023-03-13T15:35:43.359Z,0.70
2023-03-13T15:39:45.513Z,0.70
2023-03-13T15:43:47.726Z,0.57
2023-03-13T15:47:49.883Z,0.77
2023-03-13T15:51:51.681Z,0.70
2023-03-13T15:55:55.632Z,0.80
2023-03-13T15:59:57.285Z,0.90
2023-03-13T16:04:00.420Z,0.80
2023-03-13T16:08:02.095Z,1.00
2023-03-13T16:12:03.928Z,1.00
2023-03-13T16:16:37.829Z,0.52
2023-03-13T16:20:39.699Z,0.70
2023-03-13T16:24:42.036Z,0.82
2023-03-13T16:28:44.019Z,1.35
2023-03-13T16:32:46.215Z,1.02
2023-03-13T16:36:48.001Z,0.88
2023-03-13T16:40:49.654Z,1.02
2023-03-13T16:44:51.315Z,0.90
2023-03-13T16:48:53.366Z,1.10
2023-03-13T16:52:55.170Z,1.00
2023-03-13T16:56:58.700Z,1.00
2023-03-13T17:01:05.949Z,0.80
2023-03-13T17:05:08.381Z,1.25
2023-03-13T17:09:15.345Z,1.00
2023-03-13T17:13:20.009Z,1.23
2023-03-13T17:17:22.859Z,1.23
2023-03-13T17:21:26.692Z,1.00
2023-03-13T17:25:28.444Z,1.20
2023-03-13T17:29:30.051Z,1.20
2023-03-13T17:33:31.681Z,1.02
2023-03-13T17:37:35.074Z,1.17
2023-03-13T17:41:36.839Z,1.40
2023-03-13T17:45:38.505Z,1.62
2023-03-13T17:49:40.218Z,1.27
2023-03-13T17:53:41.895Z,1.05
2023-03-13T17:57:43.924Z,1.30
2023-03-13T18:01:45.809Z,1.05
2023-03-13T18:05:47.684Z,1.35
2023-03-13T18:09:49.562Z,1.08
2023-03-13T18:13:51.578Z,1.20
2023-03-13T18:17:53.502Z,1.10
2023-03-13T18:21:55.778Z,1.60
2023-03-13T18:25:58.063Z,1.40
2023-03-13T18:29:59.745Z,1.20
2023-03-13T18:34:03.410Z,1.10
2023-03-13T18:38:05.119Z,1.73
2023-03-13T18:42:07.852Z,1.55
2023-03-13T18:46:27.855Z,1.42
2023-03-13T18:50:31.980Z,1.55
2023-03-13T18:54:34.215Z,1.30
2023-03-13T18:58:35.831Z,1.58
2023-03-13T19:02:37.540Z,1.58
2023-03-13T19:06:39.239Z,1.40
2023-03-13T19:10:41.113Z,1.50
2023-03-13T19:14:43.416Z,1.40
2023-03-13T19:18:46.513Z,1.50
2023-03-13T19:22:48.276Z,1.50
2023-03-13T19:26:58.313Z,1.45
2023-03-13T19:30:59.961Z,1.23
2023-03-13T19:35:01.591Z,1.62
2023-03-13T19:39:12.384Z,2.00
2023-03-13T19:43:14.069Z,1.67
2023-03-13T19:47:15.844Z,1.70
2023-03-13T19:51:17.455Z,1.80
2023-03-13T19:55:19.317Z,1.33
2023-03-13T19:59:23.657Z,1.80
2023-03-13T20:03:25.330Z,1.67
2023-03-13T20:07:26.965Z,1.30
2023-03-13T20:11:29.871Z,1.58
2023-03-13T20:15:31.620Z,1.35
2023-03-13T20:19:33.432Z,1.50
2023-03-13T20:23:35.282Z,1.48
2023-03-13T20:27:37.358Z,1.73
2023-03-13T20:31:39.650Z,1.87
2023-03-13T20:35:41.324Z,2.00
2023-03-13T20:39:43.032Z,1.73
2023-03-13T20:43:44.701Z,1.90
2023-03-13T20:47:46.356Z,1.62
2023-03-13T20:51:48.050Z,1.60
2023-03-13T20:55:49.857Z,1.30
2023-03-13T20:59:51.680Z,1.70
2023-03-13T21:03:53.772Z,1.92
2023-03-13T21:07:55.445Z,1.75
2023-03-13T21:11:57.184Z,1.30
2023-03-13T21:16:02.634Z,1.40
2023-03-13T21:20:12.477Z,1.58
2023-03-13T21:24:14.333Z,1.52
2023-03-13T21:28:15.966Z,1.50
2023-03-13T21:32:19.325Z,1.30
2023-03-13T21:36:21.983Z,1.45
2023-03-13T21:40:23.678Z,1.92
2023-03-13T21:44:27.330Z,1.48
2023-03-13T21:48:29.202Z,1.45
2023-03-13T21:52:33.246Z,1.52
2023-03-13T21:56:36.388Z,1.10
2023-03-13T22:00:38.029Z,1.50
2023-03-13T22:04:40.403Z,1.25
2023-03-13T22:08:42.684Z,1.90
2023-03-13T22:12:44.305Z,1.98
2023-03-13T22:16:46.164Z,1.23
2023-03-13T22:20:47.813Z,1.55
2023-03-13T22:24:49.689Z,1.40
2023-03-13T22:28:51.457Z,1.40
2023-03-13T22:32:53.173Z,1.27
2023-03-13T22:36:54.910Z,1.58
2023-03-13T22:41:02.290Z,1.40
2023-03-13T22:45:04.768Z,1.12
2023-03-13T22:49:06.383Z,1.20
2023-03-13T22:53:08.057Z,1.40
2023-03-13T22:57:09.738Z,1.33
2023-03-13T23:01:17.273Z,1.55
2023-03-13T23:05:19.148Z,1.40
2023-03-13T23:09:20.827Z,1.60
2023-03-13T23:13:22.487Z,1.37
2023-03-13T23:17:24.180Z,1.48
2023-03-13T23:21:25.840Z,1.37
2023-03-13T23:25:27.597Z,1.65
2023-03-13T23:29:29.228Z,1.15
2023-03-13T23:33:30.918Z,1.50
2023-03-13T23:37:35.538Z,1.65
2023-03-13T23:41:37.181Z,1.20
2023-03-13T23:45:38.834Z,1.20
2023-03-13T23:49:40.637Z,1.55
2023-03-13T23:53:43.082Z,1.35
2023-03-13T23:57:48.122Z,1.60
